Terminal Aerodrome Forecast
Issued by NWS Sterling, VA

Current Version | Previous Version | Graphics & Text | Print | Product List | Glossary On
Versions: 1 2 3 4 5 6 7 8 9 10 11 12 13 14 15 16 17 18 19 20 21 22 23
000
FTUS41 KLWX 221400 AAA
TAFDCA
TAF AMD
KDCA 221453Z 2215/2312 04007KT P6SM FEW035 BKN220
     FM230900 08007KT P6SM OVC030
     FM231100 08008KT P6SM OVC020=

USA.gov is the U.S. government's official web portal to all federal, state and local government web resources and services.